Map

Track Data

SID SEASON NUMBER BASIN SUBBASIN NAME ISO_TIME NATURE LAT LON WMO_WIND WMO_PRES WMO_AGENCY TRACK_TYPE DIST2LAND LANDFALL IFLAG USA_AGENCY USA_ATCF_ID USA_LAT USA_LON USA_RECORD USA_STATUS USA_WIND USA_PRES USA_SSHS USA_R34_NE USA_R34_SE USA_R34_SW USA_R34_NW USA_R50_NE USA_R50_SE USA_R50_SW USA_R50_NW USA_R64_NE USA_R64_SE USA_R64_SW USA_R64_NW USA_POCI USA_ROCI USA_RMW USA_EYE TOKYO_LAT TOKYO_LON TOKYO_GRADE TOKYO_WIND TOKYO_PRES TOKYO_R50_DIR TOKYO_R50_LONG TOKYO_R50_SHORT TOKYO_R30_DIR TOKYO_R30_LONG TOKYO_R30_SHORT TOKYO_LAND CMA_LAT CMA_LON CMA_CAT CMA_WIND CMA_PRES HKO_LAT HKO_LON HKO_CAT HKO_WIND HKO_PRES NEWDELHI_LAT NEWDELHI_LON NEWDELHI_GRADE NEWDELHI_WIND NEWDELHI_PRES NEWDELHI_CI NEWDELHI_DP NEWDELHI_POCI REUNION_LAT REUNION_LON REUNION_TYPE REUNION_WIND REUNION_PRES REUNION_TNUM REUNION_CI REUNION_RMW REUNION_R34_NE REUNION_R34_SE REUNION_R34_SW REUNION_R34_NW REUNION_R50_NE REUNION_R50_SE REUNION_R50_SW REUNION_R50_NW REUNION_R64_NE REUNION_R64_SE REUNION_R64_SW REUNION_R64_NW BOM_LAT BOM_LON BOM_TYPE BOM_WIND BOM_PRES BOM_TNUM BOM_CI BOM_RMW BOM_R34_NE BOM_R34_SE BOM_R34_SW BOM_R34_NW BOM_R50_NE BOM_R50_SE BOM_R50_SW BOM_R50_NW BOM_R64_NE BOM_R64_SE BOM_R64_SW BOM_R64_NW BOM_ROCI BOM_POCI BOM_EYE BOM_POS_METHOD BOM_PRES_METHOD NADI_LAT NADI_LON NADI_CAT NADI_WIND NADI_PRES WELLINGTON_LAT WELLINGTON_LON WELLINGTON_WIND WELLINGTON_PRES DS824_LAT DS824_LON DS824_STAGE DS824_WIND DS824_PRES TD9636_LAT TD9636_LON TD9636_STAGE TD9636_WIND TD9636_PRES TD9635_LAT TD9635_LON TD9635_WIND TD9635_PRES TD9635_ROCI NEUMANN_LAT NEUMANN_LON NEUMANN_CLASS NEUMANN_WIND NEUMANN_PRES MLC_LAT MLC_LON MLC_CLASS MLC_WIND MLC_PRES USA_GUST BOM_GUST BOM_GUST_PER REUNION_GUST REUNION_GUST_PER USA_SEAHGT USA_SEARAD_NE USA_SEARAD_SE USA_SEARAD_SW USA_SEARAD_NW STORM_SPEED STORM_DIR
1860289N14290 1860 34 NA CS NOT_NAMED 1860-10-15 06:00:00 TS 13.8000 -69.6000 main 193 191 _____________O -1 13.8000 -69.6000 TD 30 5 296
1860289N14290 1860 34 NA CS NOT_NAMED 1860-10-15 09:00:00 TS 13.9001 -69.8125 main 201 201 _____________P -1 13.9001 -69.8125 TD 30 4 297
1860289N14290 1860 34 NA CS NOT_NAMED 1860-10-15 12:00:00 TS 14.0000 -70.0000 main 212 212 _____________O -1 14.0000 -70.0000 TD 30 4 301
1860289N14290 1860 34 NA CS NOT_NAMED 1860-10-15 15:00:00 TS 14.1000 -70.1500 main 223 223 _____________P -1 14.1000 -70.1500 TD 30 4 304
1860289N14290 1860 34 NA CS NOT_NAMED 1860-10-15 18:00:00 TS 14.2000 -70.3000 main 235 234 _____________O -1 14.2000 -70.3000 TD 30 4 301
1860289N14290 1860 34 NA CS NOT_NAMED 1860-10-15 21:00:00 TS 14.3075 -70.5000 main 238 233 _____________P -1 14.3075 -70.5000 TD 30 4 297
1860289N14290 1860 34 NA CS NOT_NAMED 1860-10-16 00:00:00 TS 14.4000 -70.7000 main 240 236 _____________O -1 14.4000 -70.7000 TD 30 4 293
1860289N14290 1860 34 NA CS NOT_NAMED 1860-10-16 03:00:00 TS 14.4500 -70.8501 main 233 233 _____________P -1 14.4500 -70.8501 TD 30 3 289
1860289N14290 1860 34 NA CS NOT_NAMED 1860-10-16 06:00:00 TS 14.5000 -71.0000 main 241 239 _____________O -1 14.5000 -71.0000 TD 30 4 293
1860289N14290 1860 34 NA CS NOT_NAMED 1860-10-16 09:00:00 TS 14.5925 -71.2000 main 248 247 _____________P -1 14.5925 -71.2000 TD 30 4 297
1860289N14290 1860 34 NA CS NOT_NAMED 1860-10-16 12:00:00 TS 14.7000 -71.4000 main 257 257 _____________O -1 14.7000 -71.4000 TD 30 4 301
1860289N14290 1860 34 NA CS NOT_NAMED 1860-10-16 15:00:00 TS 14.8000 -71.5575 main 268 268 _____________P -1 14.8000 -71.5575 TD 30 4 304
1860289N14290 1860 34 NA CS NOT_NAMED 1860-10-16 18:00:00 TS 14.9000 -71.7000 main 279 279 _____________O -1 14.9000 -71.7000 TD 30 4 306
1860289N14290 1860 34 NA CS NOT_NAMED 1860-10-16 21:00:00 TS 15.0075 -71.8500 main 291 284 _____________P -1 15.0075 -71.8500 TD 30 4 304
1860289N14290 1860 34 NA CS NOT_NAMED 1860-10-17 00:00:00 TS 15.1000 -72.0000 main 287 287 _____________O -1 15.1000 -72.0000 TD 30 3 292
1860289N14290 1860 34 NA CS NOT_NAMED 1860-10-17 03:00:00 TS 15.1200 -72.1352 main 289 281 _____________P -1 15.1200 -72.1352 TD 32 3 289
1860289N14290 1860 34 NA CS NOT_NAMED 1860-10-17 06:00:00 TS 15.2000 -72.3000 main 285 272 _____________O -1 15.2000 -72.3000 TS 35 5 311
1860289N14290 1860 34 NA CS NOT_NAMED 1860-10-17 09:00:00 TS 15.4625 -72.5424 main 262 250 _____________P -1 15.4625 -72.5424 TS 37 8 321
1860289N14290 1860 34 NA CS NOT_NAMED 1860-10-17 12:00:00 TS 15.8000 -72.8000 main 250 224 _____________O -1 15.8000 -72.8000 TS 40 8 325
1860289N14290 1860 34 NA CS NOT_NAMED 1860-10-17 15:00:00 TS 16.1000 -73.0076 main 224 190 _____________P -1 16.1000 -73.0076 TS 45 7 327
1860289N14290 1860 34 NA CS NOT_NAMED 1860-10-17 18:00:00 TS 16.4000 -73.2000 main 190 151 _____________O -1 16.4000 -73.2000 TS 50 7 328
1860289N14290 1860 34 NA CS NOT_NAMED 1860-10-17 21:00:00 TS 16.7075 -73.4000 main 151 113 _____________P -1 16.7075 -73.4000 TS 55 7 327
1860289N14290 1860 34 NA CS NOT_NAMED 1860-10-18 00:00:00 TS 17.0000 -73.6000 main 113 89 _____________O -1 17.0000 -73.6000 TS 60 7 323
1860289N14290 1860 34 NA CS NOT_NAMED 1860-10-18 03:00:00 TS 17.2350 -73.8225 main 89 56 _____________P -1 17.2350 -73.8225 TS 60 6 323
1860289N14290 1860 34 NA CS NOT_NAMED 1860-10-18 06:00:00 TS 17.5000 -74.0000 main 56 23 _____________O -1 17.5000 -74.0000 TS 60 7 340
1860289N14290 1860 34 NA CS NOT_NAMED 1860-10-18 09:00:00 TS 17.8850 -74.0726 main 23 0 _____________P -1 17.8850 -74.0726 TS 62 8 353
1860289N14290 1860 34 NA NA NOT_NAMED 1860-10-18 12:00:00 TS 18.3000 -74.1000 main 0 0 _____________O -1 18.3000 -74.1000 HU 65 8 354
1860289N14290 1860 34 NA CS NOT_NAMED 1860-10-18 15:00:00 TS 18.6500 -74.1575 main 11 0 _____________P -1 18.6500 -74.1575 HU 65 7 352
1860289N14290 1860 34 NA CS NOT_NAMED 1860-10-18 18:00:00 TS 19.0000 -74.2000 main 44 44 _____________O -1 19.0000 -74.2000 HU 65 8 358
1860289N14290 1860 34 NA CS NOT_NAMED 1860-10-18 21:00:00 TS 19.4000 -74.2075 main 78 35 _____________P -1 19.4000 -74.2075 HU 65 8 1
1860289N14290 1860 34 NA CS NOT_NAMED 1860-10-19 00:00:00 TS 19.8000 -74.2000 main 35 0 _____________O -1 19.8000 -74.2000 HU 65 8 0
1860289N14290 1860 34 NA NA NOT_NAMED 1860-10-19 03:00:00 TS 20.1725 -74.2075 main 0 0 _____________P -1 20.1725 -74.2075 HU 67 7 0
1860289N14290 1860 34 NA NA NOT_NAMED 1860-10-19 06:00:00 TS 20.5000 -74.2000 main 30 30 _____________O -1 20.5000 -74.2000 HU 70 6 3
1860289N14290 1860 34 NA NA NOT_NAMED 1860-10-19 09:00:00 TS 20.7650 -74.1650 main 53 41 _____________P -1 20.7650 -74.1650 HU 70 5 11
1860289N14290 1860 34 NA NA NOT_NAMED 1860-10-19 12:00:00 TS 21.0000 -74.1000 main 41 33 _____________O -1 21.0000 -74.1000 HU 70 5 17
1860289N14290 1860 34 NA NA NOT_NAMED 1860-10-19 15:00:00 TS 21.2500 -74.0075 main 38 38 _____________P -1 21.2500 -74.0075 HU 70 5 20
1860289N14290 1860 34 NA NA NOT_NAMED 1860-10-19 18:00:00 TS 21.5000 -73.9000 main 49 49 _____________O -1 21.5000 -73.9000 HU 70 5 21
1860289N14290 1860 34 NA NA NOT_NAMED 1860-10-19 21:00:00 TS 21.7500 -73.8000 main 67 67 _____________P -1 21.7500 -73.8000 HU 70 15 49
1860289N14290 1860 34 NA NA NOT_NAMED 1860-10-20 00:00:00 TS 22.5000 -72.6667 70 hurdat_atl main 148 148 O____________O hurdat_atl AL071860 23.5000 -70.6000 HU 70 1 22.0000 -73.7000 HU 70 19 51
1860289N14290 1860 34 NA NA NOT_NAMED 1860-10-20 03:00:00 TS 22.9225 -72.2312 main 207 207 P____________P AL071860 23.5876 -70.8475 HU 70 1 22.2575 -73.6149 HU 72 9 38
1860289N14290 1860 34 NA NA NOT_NAMED 1860-10-20 06:00:00 TS 23.2200 -72.0600 70 hurdat_atl main 242 242 O____________O hurdat_atl AL071860 23.7000 -71.1000 HU 70 1 22.5000 -73.5000 HU 75 6 21
1860289N14290 1860 34 NA NA NOT_NAMED 1860-10-20 09:00:00 TS 23.4692 -72.0075 main 276 276 P____________P AL071860 23.8500 -71.3575 HU 70 1 22.7075 -73.3075 HU 75 4 355
1860289N14290 1860 34 NA NA NOT_NAMED 1860-10-20 12:00:00 TS 23.6333 -72.1000 70 hurdat_atl main 283 283 O____________O hurdat_atl AL071860 24.0000 -71.6000 HU 70 1 22.9000 -73.1000 HU 75 3 330
1860289N14290 1860 34 NA NA NOT_NAMED 1860-10-20 15:00:00 TS 23.7666 -72.1884 main 302 302 P____________P AL071860 24.1000 -71.8151 HU 70 1 23.1000 -72.9350 HU 75 3 330
1860289N14290 1860 34 NA NA NOT_NAMED 1860-10-20 18:00:00 TS 23.9000 -72.2667 70 hurdat_atl main 310 310 O____________O hurdat_atl AL071860 24.2000 -72.0000 HU 70 1 23.3000 -72.8000 HU 75 3 335
1860289N14290 1860 34 NA NA NOT_NAMED 1860-10-20 21:00:00 TS 24.0641 -72.3383 main 332 329 P____________P AL071860 24.3500 -72.1575 HU 70 1 23.4925 -72.6999 HU 75 4 340
1860289N14290 1860 34 NA NA NOT_NAMED 1860-10-21 00:00:00 TS 24.2333 -72.4000 70 hurdat_atl main 340 340 O____________O hurdat_atl AL071860 24.5000 -72.3000 HU 70 1 23.7000 -72.6000 HU 75 3 343
1860289N14290 1860 34 NA NA NOT_NAMED 1860-10-21 03:00:00 TS 24.3708 -72.4476 main 362 361 P____________P AL071860 24.5850 -72.4427 HU 70 1 23.9425 -72.4575 HU 77 3 344
1860289N14290 1860 34 NA NA NOT_NAMED 1860-10-21 06:00:00 TS 24.5333 -72.5000 70 hurdat_atl main 372 372 O____________O hurdat_atl AL071860 24.7000 -72.6000 HU 70 1 24.2000 -72.3000 HU 80 4 343
1860289N14290 1860 34 NA NA NOT_NAMED 1860-10-21 09:00:00 TS 24.7659 -72.5808 main 404 404 P____________P AL071860 24.9276 -72.8148 HU 75 1 24.4425 -72.1127 HU 80 5 343
1860289N14290 1860 34 NA NA NOT_NAMED 1860-10-21 12:00:00 TS 25.0333 -72.6667 80 hurdat_atl main 425 425 O____________O hurdat_atl AL071860 25.2000 -73.0000 HU 80 1 24.7000 -72.0000 HU 80 5 346
1860289N14290 1860 34 NA NA NOT_NAMED 1860-10-21 15:00:00 TS 25.2925 -72.7259 main 459 459 P____________P AL071860 25.4424 -73.0578 HU 80 1 24.9925 -72.0623 HU 80 5 347
1860289N14290 1860 34 NA NA NOT_NAMED 1860-10-21 18:00:00 TS 25.5667 -72.8000 80 hurdat_atl main 492 492 O____________O hurdat_atl AL071860 25.7000 -73.1000 HU 80 1 25.3000 -72.2000 HU 80 6 342
1860289N14290 1860 34 NA NA NOT_NAMED 1860-10-21 21:00:00 TS 25.8517 -72.9258 main 507 495 P____________P AL071860 25.9775 -73.2424 HU 80 1 25.6000 -72.2926 HU 80 6 338
1860289N14290 1860 34 NA NA NOT_NAMED 1860-10-22 00:00:00 TS 26.1667 -73.0667 80 hurdat_atl main 499 498 O____________O hurdat_atl AL071860 26.3000 -73.4000 HU 80 1 25.9000 -72.4000 HU 80 7 339
1860289N14290 1860 34 NA NA NOT_NAMED 1860-10-22 03:00:00 TS 26.4858 -73.1885 main 502 502 P____________P AL071860 26.6700 -73.5076 HU 80 1 26.1175 -72.5502 HU 80 8 344
1860289N14290 1860 34 NA NA NOT_NAMED 1860-10-22 06:00:00 TS 26.9000 -73.3000 80 hurdat_atl main 510 510 O____________O hurdat_atl AL071860 27.1000 -73.6000 HU 80 1 26.5000 -72.7000 HU 80 10 348
1860289N14290 1860 34 NA NA NOT_NAMED 1860-10-22 09:00:00 TS 27.4717 -73.4320 main 530 527 P____________P AL071860 27.5700 -73.7370 HU 80 1 27.2750 -72.8222 HU 80 13 352
1860289N14290 1860 34 NA NA NOT_NAMED 1860-10-22 12:00:00 TS 28.1333 -73.5000 80 hurdat_atl main 558 558 O____________O hurdat_atl AL071860 28.1000 -73.8000 HU 80 1 28.2000 -72.9000 HU 80 13 358
1860289N14290 1860 34 NA NA NOT_NAMED 1860-10-22 15:00:00 TS 28.7774 -73.4670 main 607 607 P____________P AL071860 28.6624 -73.7099 HU 80 1 29.0072 -72.9812 HU 82 14 8
1860289N14290 1860 34 NA NA NOT_NAMED 1860-10-22 18:00:00 TS 29.4667 -73.3000 80 hurdat_atl main 653 599 O____________O hurdat_atl AL071860 29.3000 -73.5000 HU 80 1 29.8000 -72.9000 HU 85 15 16
1860289N14290 1860 34 NA NA NOT_NAMED 1860-10-22 21:00:00 TS 30.2083 -73.0048 main 599 549 P____________P AL071860 30.0123 -73.2517 HU 85 2 30.6004 -72.5111 HU 85 17 22
1860289N14290 1860 34 NA NA NOT_NAMED 1860-10-23 00:00:00 TS 31.0000 -72.6000 90 hurdat_atl main 549 513 O____________O hurdat_atl AL071860 30.8000 -72.9000 HU 90 2 31.4000 -72.0000 HU 85 17 23
1860289N14290 1860 34 NA NA NOT_NAMED 1860-10-23 03:00:00 TS 31.8024 -72.2156 main 513 492 P____________P AL071860 31.6120 -72.4732 HU 90 2 32.1831 -71.7005 HU 82 19 25
1860289N14290 1860 34 NA NA NOT_NAMED 1860-10-23 06:00:00 TS 32.6667 -71.6667 90 hurdat_atl main 489 481 O____________O hurdat_atl AL071860 32.5000 -71.9000 HU 90 2 33.0000 -71.2000 HU 80 21 33
1860289N14290 1860 34 NA NA NOT_NAMED 1860-10-23 09:00:00 TS 33.5857 -70.8529 main 485 485 P____________P AL071860 33.4392 -71.1941 HU 85 2 33.8787 -70.1706 HU 77 25 38
1860289N14290 1860 34 NA NA NOT_NAMED 1860-10-23 12:00:00 TS 34.6000 -69.8333 80 hurdat_atl main 533 530 O____________O hurdat_atl AL071860 34.5000 -70.3000 HU 80 1 34.8000 -68.9000 HU 75 28 39
1860289N14290 1860 34 NA NA NOT_NAMED 1860-10-23 15:00:00 TS 35.7211 -68.7440 main 612 583 P____________P AL071860 35.7125 -69.2166 HU 80 1 35.7382 -67.7988 HU 72 30 39
1860289N14290 1860 34 NA NA NOT_NAMED 1860-10-23 18:00:00 TS 36.9000 -67.5000 80 hurdat_atl main 575 523 O____________O hurdat_atl AL071860 37.0000 -68.0000 HU 80 1 36.7000 -66.5000 HU 70 31 42
1860289N14290 1860 34 NA NA NOT_NAMED 1860-10-23 21:00:00 TS 38.0371 -66.1025 main 528 491 P____________P AL071860 38.2854 -66.7992 HU 75 1 37.5405 -64.7089 HU 67 32 45
1860289N14290 1860 34 NA NA NOT_NAMED 1860-10-24 00:00:00 MX 39.2000 -64.6000 70 hurdat_atl main 481 385 O____________O hurdat_atl AL071860 39.5000 -65.5000 HU 70 1 38.6000 -62.8000 EX 65 33 45
1860289N14290 1860 34 NA NA NOT_NAMED 1860-10-24 03:00:00 MX 40.4201 -63.0682 main 389 350 P____________P AL071860 40.5547 -64.0532 HU 70 1 40.1508 -61.0982 EX 62 34 44
1860289N14290 1860 34 NA NA NOT_NAMED 1860-10-24 06:00:00 MX 41.6667 -61.5000 70 hurdat_atl main 344 O____________O hurdat_atl AL071860 41.5000 -62.5000 HU 70 1 42.0000 -59.5000 EX 60 34 43

About IBTrACS Database

This database is a web-friendly format of International Best Track Archive for Climate Stewardship (IBTrACS), a global best track data archive curated by NOAA dating back to 1842.

Updated: 2021-11-26